Time,TemperatureF,DewpointF,PressureIn,WindDirection,WindDirectionDegrees,WindSpeedMPH,WindSpeedGustMPH,Humidity,HourlyPrecipIn,Conditions,Clouds,dailyrainin,SolarRadiationWatts/m^2,SoftwareType,DateUTC
2013-01-27 00:01:00,31.0,30.0,-100.00,NNW,343,0.0,0.0,97,0.00,,,0.18,1.000000,,2013-01-27 07:01:00,
2013-01-27 00:13:00,31.0,30.0,-100.00,NNW,343,0.0,0.0,97,0.00,,,0.18,1.000000,,2013-01-27 07:13:00,
2013-01-27 00:32:00,31.0,30.0,-100.00,East,87,2.0,4.0,97,0.00,,,0.18,1.000000,,2013-01-27 07:32:00,
2013-01-27 00:42:00,31.0,30.0,-100.00,East,87,2.0,4.0,97,0.00,,,0.18,1.000000,,2013-01-27 07:42:00,
2013-01-27 00:52:00,31.0,30.0,-100.00,East,87,2.0,4.0,97,0.00,,,0.18,1.000000,,2013-01-27 07:52:00,
2013-01-27 01:01:00,31.0,30.0,-100.00,East,87,2.0,4.0,97,0.00,,,0.18,1.000000,,2013-01-27 08:01:00,
2013-01-27 01:11:00,31.0,30.0,-100.00,East,87,2.0,4.0,97,0.00,,,0.18,1.000000,,2013-01-27 08:11:00,
2013-01-27 01:32:00,30.0,28.0,-100.00,NNW,335,0.0,2.0,93,0.00,,,0.18,1.000000,,2013-01-27 08:32:00,
2013-01-27 01:42:00,30.0,28.0,-100.00,NNW,335,0.0,2.0,93,0.00,,,0.18,1.000000,,2013-01-27 08:42:00,
2013-01-27 01:52:00,30.0,28.0,-100.00,NNW,335,0.0,2.0,93,0.00,,,0.18,1.000000,,2013-01-27 08:52:00,
2013-01-27 02:02:00,30.0,28.0,-100.00,NNW,335,0.0,2.0,93,0.00,,,0.18,1.000000,,2013-01-27 09:02:00,
2013-01-27 02:11:00,30.0,28.0,-100.00,NNW,335,0.0,2.0,93,0.00,,,0.18,1.000000,,2013-01-27 09:11:00,
2013-01-27 02:32:00,29.0,28.0,-100.00,SSW,199,0.0,0.0,96,0.00,,,0.18,1.000000,,2013-01-27 09:32:00,
2013-01-27 02:42:00,29.0,28.0,-100.00,SSW,199,0.0,0.0,96,0.00,,,0.18,1.000000,,2013-01-27 09:42:00,
2013-01-27 02:52:00,29.0,28.0,-100.00,SSW,199,0.0,0.0,96,0.00,,,0.18,1.000000,,2013-01-27 09:52:00,
2013-01-27 03:01:00,29.0,28.0,-100.00,SSW,199,0.0,0.0,96,0.00,,,0.18,1.000000,,2013-01-27 10:01:00,
2013-01-27 03:11:00,29.0,28.0,-100.00,SSW,199,0.0,0.0,96,0.00,,,0.18,1.000000,,2013-01-27 10:11:00,
2013-01-27 03:32:00,28.0,27.0,-100.00,SE,141,1.0,2.0,96,0.00,,,0.18,1.000000,,2013-01-27 10:32:00,
2013-01-27 03:42:00,28.0,27.0,-100.00,SE,141,1.0,2.0,96,0.00,,,0.18,1.000000,,2013-01-27 10:42:00,
2013-01-27 03:52:00,28.0,27.0,-100.00,SE,141,1.0,2.0,96,0.00,,,0.18,1.000000,,2013-01-27 10:52:00,
2013-01-27 04:01:00,28.0,27.0,-100.00,SE,141,1.0,2.0,96,0.00,,,0.18,1.000000,,2013-01-27 11:01:00,
2013-01-27 04:11:00,28.0,27.0,-100.00,SE,141,1.0,2.0,96,0.00,,,0.18,1.000000,,2013-01-27 11:11:00,
2013-01-27 04:32:00,27.0,26.0,-100.00,NNW,340,0.0,1.0,96,0.00,,,0.18,1.000000,,2013-01-27 11:32:00,
2013-01-27 04:42:00,27.0,26.0,-100.00,NNW,340,0.0,1.0,96,0.00,,,0.18,1.000000,,2013-01-27 11:42:00,
2013-01-27 04:52:00,27.0,26.0,-100.00,NNW,340,0.0,1.0,96,0.00,,,0.18,1.000000,,2013-01-27 11:52:00,
2013-01-27 05:02:00,27.0,26.0,-100.00,NNW,340,0.0,1.0,96,0.00,,,0.18,1.000000,,2013-01-27 12:02:00,
2013-01-27 05:11:00,27.0,26.0,-100.00,NNW,340,0.0,1.0,96,0.00,,,0.18,1.000000,,2013-01-27 12:11:00,
2013-01-27 05:33:00,25.0,24.0,-100.00,East,99,0.0,1.0,95,0.00,,,-99.99,1.000000,,2013-01-27 12:33:00,
2013-01-27 05:42:00,25.0,24.0,-100.00,East,99,0.0,1.0,95,0.00,,,-99.99,1.000000,,2013-01-27 12:42:00,
2013-01-27 05:52:00,25.0,24.0,-100.00,East,99,0.0,1.0,95,0.00,,,-99.99,1.000000,,2013-01-27 12:52:00,
2013-01-27 06:02:00,25.0,24.0,-100.00,East,99,0.0,1.0,95,0.00,,,-99.99,1.000000,,2013-01-27 13:02:00,
2013-01-27 06:11:00,25.0,24.0,-100.00,East,99,0.0,1.0,95,0.00,,,-99.99,1.000000,,2013-01-27 13:11:00,
2013-01-27 06:32:00,23.0,21.0,-100.00,East,99,1.0,2.0,93,0.00,,,0.18,1.000000,,2013-01-27 13:32:00,
2013-01-27 06:42:00,23.0,21.0,-100.00,East,99,1.0,2.0,93,0.00,,,0.18,1.000000,,2013-01-27 13:42:00,
2013-01-27 06:52:00,23.0,21.0,-100.00,East,99,1.0,2.0,93,0.00,,,0.18,1.000000,,2013-01-27 13:52:00,
2013-01-27 07:01:00,23.0,21.0,-100.00,East,99,1.0,2.0,93,0.00,,,0.18,1.000000,,2013-01-27 14:01:00,
2013-01-27 07:11:00,23.0,21.0,-100.00,East,99,1.0,2.0,93,0.00,,,0.18,1.000000,,2013-01-27 14:11:00,
2013-01-27 07:53:00,21.0,19.0,-100.00,East,88,1.0,2.0,92,0.00,,,0.18,1.000000,,2013-01-27 14:53:00,
2013-01-27 08:01:00,21.0,19.0,-100.00,East,88,1.0,2.0,92,0.00,,,0.18,1.000000,,2013-01-27 15:01:00,
2013-01-27 08:11:00,21.0,19.0,-100.00,East,88,1.0,2.0,92,0.00,,,0.18,1.000000,,2013-01-27 15:11:00,
2013-01-27 08:32:00,20.0,18.0,-100.00,ESE,113,0.0,2.0,91,0.00,,,-99.99,1.000000,,2013-01-27 15:32:00,
2013-01-27 08:42:00,20.0,18.0,-100.00,ESE,113,0.0,2.0,91,0.00,,,-99.99,1.000000,,2013-01-27 15:42:00,
2013-01-27 08:52:00,20.0,18.0,-100.00,ESE,113,0.0,2.0,91,0.00,,,-99.99,1.000000,,2013-01-27 15:52:00,
2013-01-27 09:02:00,20.0,18.0,-100.00,ESE,113,0.0,2.0,91,0.00,,,-99.99,1.000000,,2013-01-27 16:02:00,
2013-01-27 09:11:00,20.0,18.0,-100.00,ESE,113,0.0,2.0,91,0.00,,,-99.99,1.000000,,2013-01-27 16:11:00,
2013-01-27 09:33:00,20.0,18.0,-100.00,SE,124,0.0,0.0,91,0.00,,,0.18,1.000000,,2013-01-27 16:33:00,
2013-01-27 09:42:00,20.0,18.0,-100.00,SE,124,0.0,0.0,91,0.00,,,0.18,1.000000,,2013-01-27 16:42:00,
2013-01-27 09:53:00,20.0,18.0,-100.00,SE,124,0.0,0.0,91,0.00,,,0.18,1.000000,,2013-01-27 16:53:00,
2013-01-27 10:01:00,20.0,18.0,-100.00,SE,124,0.0,0.0,91,0.00,,,0.18,1.000000,,2013-01-27 17:01:00,
2013-01-27 10:11:00,20.0,18.0,-100.00,SE,124,0.0,0.0,91,0.00,,,0.18,1.000000,,2013-01-27 17:11:00,
2013-01-27 10:32:00,22.0,20.0,-100.00,NNW,342,1.0,2.0,91,0.00,,,-99.99,7.000000,,2013-01-27 17:32:00,
2013-01-27 10:42:00,22.0,20.0,-100.00,NNW,342,1.0,2.0,91,0.00,,,-99.99,7.000000,,2013-01-27 17:42:00,
2013-01-27 10:52:00,22.0,20.0,-100.00,NNW,342,1.0,2.0,91,0.00,,,-99.99,7.000000,,2013-01-27 17:52:00,
2013-01-27 11:02:00,22.0,20.0,-100.00,NNW,342,1.0,2.0,91,0.00,,,-99.99,7.000000,,2013-01-27 18:02:00,
2013-01-27 11:11:00,22.0,20.0,-100.00,NNW,342,1.0,2.0,91,0.00,,,-99.99,7.000000,,2013-01-27 18:11:00,
2013-01-27 11:32:00,25.0,22.0,-100.00,NW,319,0.0,3.0,89,-99.99,,,0.18,17.000000,,2013-01-27 18:32:00,
2013-01-27 11:42:00,25.0,22.0,-100.00,NW,319,0.0,3.0,89,-99.99,,,0.18,17.000000,,2013-01-27 18:42:00,
2013-01-27 11:52:00,25.0,22.0,-100.00,NW,319,0.0,3.0,89,-99.99,,,0.18,17.000000,,2013-01-27 18:52:00,
2013-01-27 12:01:00,25.0,22.0,-100.00,NW,319,0.0,3.0,89,-99.99,,,0.18,17.000000,,2013-01-27 19:01:00,
2013-01-27 12:11:00,25.0,22.0,-100.00,NW,319,0.0,3.0,89,-99.99,,,0.18,17.000000,,2013-01-27 19:11:00,
2013-01-27 12:33:00,30.0,26.0,-100.00,SW,219,0.0,2.0,85,0.00,,,0.18,42.000000,,2013-01-27 19:33:00,
2013-01-27 12:42:00,30.0,26.0,-100.00,SW,219,0.0,2.0,85,0.00,,,0.18,42.000000,,2013-01-27 19:42:00,
2013-01-27 12:52:00,30.0,26.0,-100.00,SW,219,0.0,2.0,85,0.00,,,0.18,42.000000,,2013-01-27 19:52:00,
2013-01-27 13:02:00,30.0,26.0,-100.00,SW,219,0.0,2.0,85,0.00,,,0.18,42.000000,,2013-01-27 20:02:00,
2013-01-27 13:11:00,30.0,26.0,-100.00,SW,219,0.0,2.0,85,0.00,,,0.18,42.000000,,2013-01-27 20:11:00,
2013-01-27 13:33:00,32.0,27.0,-100.00,SW,232,0.0,0.0,83,0.00,,,0.18,37.000000,,2013-01-27 20:33:00,
2013-01-27 13:42:00,32.0,27.0,-100.00,SW,232,0.0,0.0,83,0.00,,,0.18,37.000000,,2013-01-27 20:42:00,
2013-01-27 13:52:00,32.0,27.0,-100.00,SW,232,0.0,0.0,83,0.00,,,0.18,37.000000,,2013-01-27 20:52:00,
2013-01-27 14:01:00,32.0,27.0,-100.00,SW,232,0.0,0.0,83,0.00,,,0.18,37.000000,,2013-01-27 21:01:00,
2013-01-27 14:11:00,32.0,27.0,-100.00,SW,232,0.0,0.0,83,0.00,,,0.18,37.000000,,2013-01-27 21:11:00,
2013-01-27 14:33:00,33.0,24.0,-100.00,SSW,201,1.0,3.0,70,0.00,,,0.17,44.000000,,2013-01-27 21:33:00,
2013-01-27 14:43:00,33.0,24.0,-100.00,SSW,201,1.0,3.0,70,0.00,,,0.17,44.000000,,2013-01-27 21:43:00,
2013-01-27 14:52:00,33.0,24.0,-100.00,SSW,201,1.0,3.0,70,0.00,,,0.17,44.000000,,2013-01-27 21:52:00,
2013-01-27 15:01:00,33.0,24.0,-100.00,SSW,201,1.0,3.0,70,0.00,,,0.17,44.000000,,2013-01-27 22:01:00,
2013-01-27 15:11:00,33.0,24.0,-100.00,SSW,201,1.0,3.0,70,0.00,,,0.17,44.000000,,2013-01-27 22:11:00,
2013-01-27 16:32:00,33.0,24.0,-100.00,East,89,1.0,3.0,69,-99.99,,,0.15,35.000000,,2013-01-27 23:32:00,
2013-01-27 16:42:00,33.0,24.0,-100.00,East,89,1.0,3.0,69,-99.99,,,0.15,35.000000,,2013-01-27 23:42:00,
2013-01-27 16:53:00,33.0,24.0,-100.00,East,89,1.0,3.0,69,-99.99,,,0.15,35.000000,,2013-01-27 23:53:00,
2013-01-27 17:01:00,33.0,24.0,-100.00,East,89,1.0,3.0,69,-99.99,,,0.15,35.000000,,2013-01-28 00:01:00,
2013-01-27 17:11:00,33.0,24.0,-100.00,East,89,1.0,3.0,69,-99.99,,,0.15,35.000000,,2013-01-28 00:11:00,
2013-01-27 17:33:00,33.0,27.0,-100.00,SSW,209,1.0,5.0,77,0.00,,,0.11,207.000000,,2013-01-28 00:33:00,
2013-01-27 17:42:00,33.0,27.0,-100.00,SSW,209,1.0,5.0,77,0.00,,,0.11,207.000000,,2013-01-28 00:42:00,
2013-01-27 17:52:00,33.0,27.0,-100.00,SSW,209,1.0,5.0,77,0.00,,,0.11,207.000000,,2013-01-28 00:52:00,
2013-01-27 18:01:00,33.0,27.0,-100.00,SSW,209,1.0,5.0,77,0.00,,,0.11,207.000000,,2013-01-28 01:01:00,
2013-01-27 18:11:00,33.0,27.0,-100.00,SSW,209,1.0,5.0,77,0.00,,,0.11,207.000000,,2013-01-28 01:11:00,
2013-01-27 18:33:00,28.0,23.0,-100.00,SSW,206,1.0,4.0,82,0.00,,,0.11,66.000000,,2013-01-28 01:33:00,
2013-01-27 18:42:00,28.0,23.0,-100.00,SSW,206,1.0,4.0,82,0.00,,,0.11,66.000000,,2013-01-28 01:42:00,
2013-01-27 18:52:00,28.0,23.0,-100.00,SSW,206,1.0,4.0,82,0.00,,,0.11,66.000000,,2013-01-28 01:52:00,
2013-01-27 19:02:00,28.0,23.0,-100.00,SSW,206,1.0,4.0,82,0.00,,,0.11,66.000000,,2013-01-28 02:02:00,
2013-01-27 19:11:00,28.0,23.0,-100.00,SSW,206,1.0,4.0,82,0.00,,,0.11,66.000000,,2013-01-28 02:11:00,
2013-01-27 19:42:00,25.0,20.0,-100.00,SE,145,3.0,7.0,82,0.00,,,0.10,4.000000,,2013-01-28 02:42:00,
2013-01-27 19:52:00,25.0,20.0,-100.00,SE,145,3.0,7.0,82,0.00,,,0.10,4.000000,,2013-01-28 02:52:00,
2013-01-27 20:02:00,25.0,20.0,-100.00,SE,145,3.0,7.0,82,0.00,,,0.10,4.000000,,2013-01-28 03:02:00,
2013-01-27 20:11:00,25.0,20.0,-100.00,SE,145,3.0,7.0,82,0.00,,,0.10,4.000000,,2013-01-28 03:11:00,
2013-01-27 20:32:00,22.0,20.0,-100.00,SSE,160,1.0,7.0,90,0.00,,,0.06,1.000000,,2013-01-28 03:32:00,
2013-01-27 20:42:00,22.0,20.0,-100.00,SSE,160,1.0,7.0,90,0.00,,,0.06,1.000000,,2013-01-28 03:42:00,
2013-01-27 20:52:00,22.0,20.0,-100.00,SSE,160,1.0,7.0,90,0.00,,,0.06,1.000000,,2013-01-28 03:52:00,
2013-01-27 21:01:00,22.0,20.0,-100.00,SSE,160,1.0,7.0,90,0.00,,,0.06,1.000000,,2013-01-28 04:01:00,
2013-01-27 21:11:00,22.0,20.0,-100.00,SSE,160,1.0,7.0,90,0.00,,,0.06,1.000000,,2013-01-28 04:11:00,
2013-01-27 21:32:00,20.0,18.0,-100.00,East,93,1.0,4.0,90,0.00,,,0.03,1.000000,,2013-01-28 04:32:00,
2013-01-27 21:42:00,20.0,18.0,-100.00,East,93,1.0,4.0,90,0.00,,,0.03,1.000000,,2013-01-28 04:42:00,
2013-01-27 21:52:00,20.0,18.0,-100.00,East,93,1.0,4.0,90,0.00,,,0.03,1.000000,,2013-01-28 04:52:00,
2013-01-27 22:03:00,20.0,18.0,-100.00,East,93,1.0,4.0,90,0.00,,,0.03,1.000000,,2013-01-28 05:03:00,
2013-01-27 22:11:00,20.0,18.0,-100.00,East,93,1.0,4.0,90,0.00,,,0.03,1.000000,,2013-01-28 05:11:00,
2013-01-27 22:32:00,18.0,16.0,-100.00,NE,52,2.0,4.0,90,0.00,,,0.00,1.000000,,2013-01-28 05:32:00,
2013-01-27 22:42:00,18.0,16.0,-100.00,NE,52,2.0,4.0,90,0.00,,,0.00,1.000000,,2013-01-28 05:42:00,
2013-01-27 22:52:00,18.0,16.0,-100.00,NE,52,2.0,4.0,90,0.00,,,0.00,1.000000,,2013-01-28 05:52:00,
2013-01-27 23:02:00,18.0,16.0,-100.00,NE,52,2.0,4.0,90,0.00,,,0.00,1.000000,,2013-01-28 06:02:00,
2013-01-27 23:11:00,18.0,16.0,-100.00,NE,52,2.0,4.0,90,0.00,,,0.00,1.000000,,2013-01-28 06:11:00,
2013-01-27 23:32:00,17.0,15.0,-100.00,ESE,106,1.0,5.0,90,0.00,,,0.00,1.000000,,2013-01-28 06:32:00,
2013-01-27 23:42:00,17.0,15.0,-100.00,ESE,106,1.0,5.0,90,0.00,,,0.00,1.000000,,2013-01-28 06:42:00,
2013-01-27 23:52:00,17.0,15.0,-100.00,ESE,106,1.0,5.0,90,0.00,,,0.00,1.000000,,2013-01-28 06:52:00,